createdAt,value
2019-03-27T00:01:48.921Z,21.50
2019-03-27T00:04:20.487Z,20.27
2019-03-27T00:06:50.932Z,20.97
2019-03-27T00:09:21.071Z,20.85
2019-03-27T00:11:51.706Z,20.23
2019-03-27T00:16:55.969Z,18.67
2019-03-27T00:19:26.206Z,20.43
2019-03-27T00:21:56.968Z,21.70
2019-03-27T00:24:26.983Z,21.00
2019-03-27T00:26:56.997Z,21.25
2019-03-27T00:29:27.152Z,22.70
2019-03-27T00:31:57.813Z,22.93
2019-03-27T00:34:27.905Z,23.70
2019-03-27T00:36:58.303Z,19.95
2019-03-27T00:39:28.804Z,22.50
2019-03-27T00:41:59.031Z,24.10
2019-03-27T00:44:29.603Z,24.65
2019-03-27T00:46:59.504Z,24.87
2019-03-27T00:49:29.547Z,22.27
2019-03-27T00:51:59.930Z,25.10
2019-03-27T00:54:30.555Z,21.65
2019-03-27T00:57:00.966Z,26.15
2019-03-27T00:59:31.744Z,23.40
2019-03-27T01:04:31.307Z,20.65
2019-03-27T01:07:01.964Z,21.00
2019-03-27T01:09:32.518Z,22.98
2019-03-27T01:12:02.948Z,21.77
2019-03-27T01:14:33.558Z,21.75
2019-03-27T01:17:03.986Z,25.00
2019-03-27T01:19:35.468Z,21.73
2019-03-27T01:22:05.890Z,24.27
2019-03-27T01:24:36.299Z,23.95
2019-03-27T01:27:06.753Z,23.38
2019-03-27T01:32:06.286Z,23.35
2019-03-27T01:34:36.759Z,24.82
2019-03-27T01:37:07.082Z,24.02
2019-03-27T01:39:37.527Z,23.95
2019-03-27T01:42:08.188Z,26.20
2019-03-27T01:44:38.719Z,21.80
2019-03-27T01:47:08.989Z,22.55
2019-03-27T01:49:39.144Z,22.37
2019-03-27T01:52:10.272Z,23.83
2019-03-27T01:54:40.891Z,23.83
2019-03-27T01:57:11.066Z,21.12
2019-03-27T01:59:41.560Z,27.60
2019-03-27T02:02:12.576Z,28.47
2019-03-27T02:04:43.128Z,29.95
2019-03-27T02:07:13.619Z,24.70
2019-03-27T02:09:43.938Z,26.45
2019-03-27T02:12:14.082Z,28.83
2019-03-27T02:14:44.566Z,28.12
2019-03-27T02:17:14.863Z,29.60
2019-03-27T02:19:45.030Z,27.10
2019-03-27T02:22:15.911Z,26.75
2019-03-27T02:24:46.302Z,30.62
2019-03-27T02:27:16.722Z,30.37
2019-03-27T02:32:20.266Z,29.45
2019-03-27T02:34:48.090Z,31.30
2019-03-27T02:37:18.576Z,30.30
2019-03-27T02:39:48.955Z,34.53
2019-03-27T02:42:19.096Z,32.03
2019-03-27T02:44:49.936Z,32.28
2019-03-27T02:47:20.296Z,28.95
2019-03-27T02:49:50.737Z,36.38
2019-03-27T02:54:51.046Z,29.18
2019-03-27T02:59:11.965Z,33.48
2019-03-27T03:01:42.405Z,36.25
2019-03-27T03:04:12.936Z,28.60
2019-03-27T03:06:43.050Z,32.67
2019-03-27T03:09:13.615Z,30.40
2019-03-27T03:11:43.958Z,34.33
2019-03-27T03:14:13.945Z,30.23
2019-03-27T03:16:44.430Z,32.98
2019-03-27T03:19:14.877Z,30.23
2019-03-27T03:21:46.577Z,29.18
2019-03-27T03:24:16.865Z,31.55
2019-03-27T03:26:50.600Z,33.00
2019-03-27T03:29:19.530Z,30.27
2019-03-27T03:31:49.922Z,31.00
2019-03-27T03:34:20.047Z,28.98
2019-03-27T03:36:51.755Z,29.63
2019-03-27T03:41:51.487Z,32.42
2019-03-27T03:44:21.913Z,29.70
2019-03-27T03:46:59.471Z,29.85
2019-03-27T03:49:24.033Z,32.93
2019-03-27T03:51:54.735Z,33.25
2019-03-27T03:56:57.704Z,37.13
2019-03-27T04:02:03.867Z,30.68
2019-03-27T04:04:36.918Z,36.83
2019-03-27T04:07:07.017Z,33.25
2019-03-27T04:09:37.569Z,34.85
2019-03-27T04:12:07.808Z,35.40
2019-03-27T04:14:37.938Z,29.65
2019-03-27T04:17:17.102Z,32.90
2019-03-27T04:19:40.425Z,35.75
2019-03-27T04:22:10.934Z,36.23
2019-03-27T04:24:41.318Z,30.15
2019-03-27T04:27:11.866Z,33.92
2019-03-27T04:29:42.404Z,32.63
2019-03-27T04:32:13.833Z,29.18
2019-03-27T04:34:47.189Z,30.23
2019-03-27T04:37:18.118Z,34.63
2019-03-27T04:39:48.884Z,34.80
2019-03-27T04:42:21.315Z,33.50
2019-03-27T04:44:52.060Z,32.55
2019-03-27T04:47:32.185Z,32.98
2019-03-27T04:49:56.521Z,33.30
2019-03-27T04:52:27.537Z,38.33
2019-03-27T04:54:58.051Z,32.95
2019-03-27T04:57:29.425Z,33.48
2019-03-27T05:00:00.046Z,30.65
2019-03-27T05:02:31.348Z,33.00
2019-03-27T05:05:03.808Z,31.15
2019-03-27T05:07:34.393Z,35.10
2019-03-27T05:10:05.510Z,37.08
2019-03-27T05:12:38.426Z,29.65
2019-03-27T05:17:45.761Z,37.03
2019-03-27T05:20:10.651Z,34.60
2019-03-27T05:22:40.893Z,31.35
2019-03-27T05:25:12.003Z,33.73
2019-03-27T05:27:42.738Z,35.92
2019-03-27T05:30:17.726Z,36.95
2019-03-27T05:35:18.306Z,35.63
2019-03-27T05:37:49.312Z,33.83
2019-03-27T05:40:19.958Z,32.53
2019-03-27T05:43:00.494Z,36.70
2019-03-27T05:45:23.993Z,38.65
2019-03-27T05:47:59.862Z,34.23
2019-03-27T05:50:27.449Z,33.23
2019-03-27T05:52:57.959Z,33.42
2019-03-27T05:55:28.979Z,35.10
2019-03-27T05:58:00.150Z,37.10
2019-03-27T06:00:33.411Z,37.15
2019-03-27T06:03:03.674Z,33.78
2019-03-27T06:05:34.212Z,32.30
2019-03-27T06:08:05.152Z,34.83
2019-03-27T06:10:36.093Z,36.30
2019-03-27T06:13:07.535Z,34.67
2019-03-27T06:15:38.506Z,34.73
2019-03-27T06:18:13.248Z,34.27
2019-03-27T06:23:12.443Z,31.17
2019-03-27T06:25:42.779Z,35.75
2019-03-27T06:28:12.954Z,33.35
2019-03-27T06:30:44.065Z,34.05
2019-03-27T06:33:15.291Z,35.13
2019-03-27T06:35:45.822Z,35.73
2019-03-27T06:38:16.898Z,36.28
2019-03-27T06:40:47.759Z,34.00
2019-03-27T06:43:18.819Z,38.28
2019-03-27T06:45:49.008Z,34.38
2019-03-27T06:48:26.146Z,33.18
2019-03-27T06:50:53.044Z,36.28
2019-03-27T06:53:24.105Z,35.65
2019-03-27T06:55:55.595Z,31.73
2019-03-27T06:58:26.722Z,37.67
2019-03-27T07:03:27.287Z,33.98
2019-03-27T07:05:58.468Z,41.92
2019-03-27T07:08:29.147Z,35.95
2019-03-27T07:11:00.437Z,32.80
2019-03-27T07:13:31.625Z,37.23
2019-03-27T07:21:04.325Z,33.85
2019-03-27T07:23:35.491Z,39.27
2019-03-27T07:26:06.649Z,36.33
2019-03-27T07:31:06.958Z,33.90
2019-03-27T07:33:38.288Z,35.20
2019-03-27T07:36:09.451Z,38.60
2019-03-27T07:38:41.289Z,37.40
2019-03-27T07:41:12.290Z,36.08
2019-03-27T07:43:43.502Z,37.05
2019-03-27T07:46:14.646Z,38.35
2019-03-27T07:48:53.720Z,36.23
2019-03-27T07:51:19.298Z,35.38
2019-03-27T07:53:51.291Z,38.28
2019-03-27T07:56:21.731Z,36.42
2019-03-27T08:01:22.322Z,33.18
2019-03-27T08:03:53.448Z,35.58
2019-03-27T08:06:23.783Z,36.42
2019-03-27T08:11:24.177Z,40.78
2019-03-27T08:13:54.763Z,31.73
2019-03-27T08:16:25.026Z,35.58
2019-03-27T08:19:06.846Z,33.65
2019-03-27T08:21:31.220Z,31.23
2019-03-27T08:24:02.296Z,31.93
2019-03-27T08:26:32.821Z,31.25
2019-03-27T08:29:04.290Z,31.62
2019-03-27T08:31:35.325Z,32.35
2019-03-27T08:34:06.819Z,30.30
2019-03-27T08:36:37.975Z,31.55
2019-03-27T08:39:09.967Z,31.95
2019-03-27T08:41:41.464Z,31.37
2019-03-27T08:44:11.948Z,28.77
2019-03-27T08:46:42.819Z,25.08
2019-03-27T08:49:21.903Z,28.47
2019-03-27T08:54:16.142Z,31.10
2019-03-27T08:56:46.955Z,28.30
2019-03-27T08:59:17.771Z,29.92
2019-03-27T09:01:48.518Z,24.82
2019-03-27T09:04:19.198Z,24.25
2019-03-27T09:06:50.102Z,25.97
2019-03-27T09:09:20.738Z,26.37
2019-03-27T09:11:51.968Z,27.32
2019-03-27T09:14:25.511Z,25.62
2019-03-27T09:16:56.328Z,26.48
2019-03-27T09:19:35.694Z,24.65
2019-03-27T09:21:59.979Z,23.22
2019-03-27T09:24:30.946Z,27.77
2019-03-27T09:27:01.943Z,26.55
2019-03-27T09:29:33.306Z,25.48
2019-03-27T09:32:04.326Z,26.60
2019-03-27T09:34:35.024Z,25.68
2019-03-27T09:37:06.306Z,17.95
2019-03-27T09:39:36.821Z,22.70
2019-03-27T09:42:08.372Z,21.23
2019-03-27T09:44:38.994Z,21.65
2019-03-27T09:47:10.053Z,22.17
2019-03-27T09:49:49.528Z,17.98
2019-03-27T09:52:14.334Z,11.57
2019-03-27T09:54:44.950Z,15.13
2019-03-27T09:57:15.652Z,13.25
2019-03-27T10:02:16.369Z,12.47
2019-03-27T10:04:47.545Z,12.43
2019-03-27T10:07:18.650Z,10.50
2019-03-27T10:12:21.037Z,9.28
2019-03-27T10:14:52.078Z,8.90
2019-03-27T10:17:23.022Z,9.30
2019-03-27T10:20:03.324Z,10.85
2019-03-27T10:22:26.345Z,7.40
2019-03-27T10:24:57.146Z,7.17
2019-03-27T10:27:27.588Z,8.18
2019-03-27T10:29:57.951Z,7.47
2019-03-27T10:32:28.099Z,7.22
2019-03-27T10:34:58.865Z,8.43
2019-03-27T10:37:28.950Z,8.15
2019-03-27T10:39:59.600Z,8.93
2019-03-27T10:42:29.981Z,8.00
2019-03-27T10:45:00.031Z,9.10
2019-03-27T10:47:30.570Z,9.93
2019-03-27T10:50:00.921Z,8.10
2019-03-27T10:52:31.106Z,10.90
2019-03-27T10:55:01.744Z,8.13
2019-03-27T10:57:32.024Z,6.67
2019-03-27T11:00:02.994Z,7.58
2019-03-27T11:02:34.839Z,8.08
2019-03-27T11:05:05.459Z,11.88
2019-03-27T11:07:36.309Z,9.60
2019-03-27T11:10:07.777Z,10.63
2019-03-27T11:12:38.389Z,8.53
2019-03-27T11:15:10.762Z,6.30
2019-03-27T11:17:41.235Z,6.50
2019-03-27T11:20:12.521Z,5.47
2019-03-27T11:22:43.537Z,12.18
2019-03-27T11:27:49.000Z,7.35
2019-03-27T11:30:25.516Z,12.23
2019-03-27T11:32:57.795Z,8.13
2019-03-27T11:35:29.294Z,6.90
2019-03-27T11:38:01.300Z,5.70
2019-03-27T11:40:32.895Z,7.90
2019-03-27T11:43:05.129Z,7.45
2019-03-27T11:45:37.816Z,7.35
2019-03-27T11:48:09.498Z,7.50
2019-03-27T11:50:45.309Z,7.03
2019-03-27T12:00:54.799Z,9.03
2019-03-27T12:03:22.617Z,8.50
2019-03-27T12:05:52.967Z,8.08
2019-03-27T12:08:23.869Z,8.90
2019-03-27T12:10:54.367Z,8.40
2019-03-27T12:13:25.432Z,8.65
2019-03-27T12:15:56.363Z,8.53
2019-03-27T12:18:27.053Z,8.10
2019-03-27T12:20:59.783Z,7.20
2019-03-27T12:23:30.765Z,6.70
2019-03-27T12:26:02.059Z,7.70
2019-03-27T12:28:32.966Z,7.40
2019-03-27T12:31:03.969Z,6.40
2019-03-27T12:33:35.312Z,7.80
2019-03-27T12:36:06.491Z,8.08
2019-03-27T12:38:38.933Z,8.58
2019-03-27T12:41:10.319Z,13.60
2019-03-27T12:43:42.521Z,10.53
2019-03-27T12:46:13.695Z,9.48
2019-03-27T12:51:14.295Z,10.05
2019-03-27T12:53:44.939Z,11.12
2019-03-27T12:56:15.726Z,13.08
2019-03-27T12:58:46.305Z,10.43
2019-03-27T13:01:17.803Z,10.23
2019-03-27T13:03:48.817Z,10.00
2019-03-27T13:06:20.299Z,11.78
2019-03-27T13:08:52.077Z,8.23
2019-03-27T13:11:23.301Z,10.13
2019-03-27T13:13:54.073Z,9.63
2019-03-27T13:16:24.932Z,10.53
2019-03-27T13:18:56.374Z,9.80
2019-03-27T13:21:27.118Z,11.00
2019-03-27T13:23:58.488Z,8.33
2019-03-27T13:26:29.595Z,10.45
2019-03-27T13:29:01.566Z,9.48
2019-03-27T13:31:32.297Z,9.00
2019-03-27T13:34:03.311Z,9.23
2019-03-27T13:36:36.536Z,10.03
2019-03-27T13:39:09.315Z,11.57
2019-03-27T13:41:40.572Z,12.28
2019-03-27T13:44:11.596Z,9.03
2019-03-27T13:49:12.538Z,8.78
2019-03-27T13:51:43.978Z,8.13
2019-03-27T13:54:14.738Z,8.75
2019-03-27T13:56:45.459Z,6.95
2019-03-27T13:59:16.498Z,9.85
2019-03-27T14:01:47.190Z,8.30
2019-03-27T14:04:18.094Z,9.93
2019-03-27T14:06:49.660Z,7.58
2019-03-27T14:11:50.514Z,9.70
2019-03-27T14:14:21.625Z,8.20
2019-03-27T14:19:23.482Z,8.03
2019-03-27T14:21:55.213Z,7.65
2019-03-27T14:24:26.456Z,7.62
2019-03-27T14:26:56.995Z,7.87
2019-03-27T14:29:27.562Z,10.48
2019-03-27T14:31:58.605Z,7.55
2019-03-27T14:34:29.309Z,7.45
2019-03-27T14:37:00.423Z,9.55
2019-03-27T14:39:31.602Z,8.38
2019-03-27T14:42:03.275Z,8.20
2019-03-27T14:44:36.417Z,8.23
2019-03-27T14:47:08.293Z,7.28
2019-03-27T14:49:39.599Z,7.67
2019-03-27T14:54:41.483Z,7.60
2019-03-27T14:57:13.474Z,8.40
2019-03-27T15:02:15.295Z,6.60
2019-03-27T15:04:46.291Z,9.25
2019-03-27T15:07:17.578Z,7.33
2019-03-27T15:12:19.286Z,7.33
2019-03-27T15:14:50.451Z,7.42
2019-03-27T15:17:21.290Z,8.35
2019-03-27T15:19:51.968Z,9.63
2019-03-27T15:22:23.034Z,8.90
2019-03-27T15:24:54.292Z,6.85
2019-03-27T15:27:25.055Z,7.47
2019-03-27T15:29:56.039Z,6.30
2019-03-27T15:32:27.780Z,6.92
2019-03-27T15:37:28.497Z,9.75
2019-03-27T15:40:00.478Z,8.23
2019-03-27T15:42:31.327Z,9.30
2019-03-27T15:45:02.310Z,6.90
2019-03-27T15:47:34.466Z,7.53
2019-03-27T15:50:05.608Z,7.97
2019-03-27T15:52:37.093Z,8.65
2019-03-27T15:55:08.825Z,7.12
2019-03-27T15:57:40.412Z,7.28
2019-03-27T16:02:42.895Z,8.50
2019-03-27T16:05:14.299Z,7.47
2019-03-27T16:07:46.772Z,7.58
2019-03-27T16:10:19.515Z,8.95
2019-03-27T16:15:20.516Z,7.85
2019-03-27T16:17:52.745Z,7.15
2019-03-27T16:20:24.126Z,7.17
2019-03-27T16:22:55.977Z,8.53
2019-03-27T16:25:27.571Z,7.42
2019-03-27T16:27:58.685Z,9.28
2019-03-27T16:32:59.102Z,9.85
2019-03-27T16:35:29.809Z,8.90
2019-03-27T16:38:00.350Z,10.15
2019-03-27T16:40:49.097Z,6.92
2019-03-27T16:43:19.986Z,7.03
2019-03-27T16:45:51.022Z,10.68
2019-03-27T16:48:21.753Z,9.08
2019-03-27T16:50:52.030Z,8.38
2019-03-27T16:53:22.977Z,8.45
2019-03-27T16:55:53.103Z,8.40
2019-03-27T16:58:23.677Z,7.03
2019-03-27T17:03:23.510Z,9.58
2019-03-27T17:10:54.855Z,7.90
2019-03-27T17:13:26.535Z,7.53
2019-03-27T17:15:57.407Z,7.10
2019-03-27T17:18:28.281Z,6.83
2019-03-27T17:20:58.974Z,7.78
2019-03-27T17:23:30.491Z,8.35
2019-03-27T17:26:01.201Z,8.20
2019-03-27T17:28:33.015Z,9.75
2019-03-27T17:31:03.932Z,6.78
2019-03-27T17:33:34.468Z,7.85
2019-03-27T17:38:34.253Z,7.90
2019-03-27T17:41:04.851Z,7.15
2019-03-27T17:43:35.209Z,9.93
2019-03-27T17:46:05.975Z,8.88
2019-03-27T17:48:36.895Z,6.87
2019-03-27T17:51:07.979Z,6.40
2019-03-27T17:53:39.053Z,6.55
2019-03-27T17:56:10.026Z,8.63
2019-03-27T17:58:40.949Z,8.23
2019-03-27T18:01:11.927Z,6.92
2019-03-27T18:03:43.007Z,5.47
2019-03-27T18:06:13.445Z,7.78
2019-03-27T18:08:44.120Z,6.65
2019-03-27T18:11:15.106Z,6.53
2019-03-27T18:13:46.110Z,6.75
2019-03-27T18:16:17.428Z,8.25
2019-03-27T18:18:47.943Z,7.50
2019-03-27T18:21:21.286Z,9.75
2019-03-27T18:23:52.069Z,6.97
2019-03-27T18:26:23.349Z,8.43
2019-03-27T18:28:53.982Z,8.90
2019-03-27T18:31:25.518Z,8.30
2019-03-27T18:33:56.314Z,7.92
2019-03-27T18:36:27.333Z,7.45
2019-03-27T18:38:58.051Z,6.03
2019-03-27T18:41:44.012Z,7.95
2019-03-27T18:44:15.102Z,7.80
2019-03-27T18:46:46.705Z,8.90
2019-03-27T18:51:47.072Z,6.12
2019-03-27T18:54:18.639Z,7.70
2019-03-27T18:59:19.084Z,6.65
2019-03-27T19:01:50.008Z,8.70
2019-03-27T19:04:21.326Z,8.50
2019-03-27T19:06:52.063Z,10.20
2019-03-27T19:09:22.810Z,7.60
2019-03-27T19:11:52.963Z,10.10
2019-03-27T19:14:23.397Z,8.60
2019-03-27T19:16:54.302Z,8.10
2019-03-27T19:19:25.165Z,10.10
2019-03-27T19:21:57.795Z,8.93
2019-03-27T19:24:28.575Z,9.90
2019-03-27T19:26:59.422Z,9.38
2019-03-27T19:29:30.110Z,10.00
2019-03-27T19:32:00.974Z,9.38
2019-03-27T19:34:31.974Z,10.93
2019-03-27T19:37:03.908Z,9.25
2019-03-27T19:39:34.985Z,9.50
2019-03-27T19:42:05.993Z,6.62
2019-03-27T19:44:37.290Z,9.35
2019-03-27T19:47:07.995Z,7.87
2019-03-27T19:49:38.834Z,10.10
2019-03-27T19:52:10.373Z,7.60
2019-03-27T19:54:41.159Z,9.15
2019-03-27T19:57:12.530Z,8.20
2019-03-27T19:59:44.659Z,6.92
2019-03-27T20:04:46.410Z,9.00
2019-03-27T20:07:17.696Z,8.68
2019-03-27T20:09:48.911Z,7.60
2019-03-27T20:12:20.520Z,7.60
2019-03-27T20:14:51.513Z,10.58
2019-03-27T20:17:22.579Z,10.93
2019-03-27T20:19:53.915Z,11.15
2019-03-27T20:22:25.010Z,12.28
2019-03-27T20:24:56.085Z,10.75
2019-03-27T20:27:27.320Z,10.80
2019-03-27T20:29:58.543Z,9.25
2019-03-27T20:32:29.823Z,11.25
2019-03-27T20:35:00.797Z,10.58
2019-03-27T20:37:32.002Z,12.05
2019-03-27T20:40:03.154Z,13.35
2019-03-27T20:42:34.164Z,10.30
2019-03-27T20:45:08.923Z,12.60
2019-03-27T20:47:40.271Z,11.10
2019-03-27T20:50:12.981Z,9.80
2019-03-27T20:52:44.591Z,8.45
2019-03-27T20:55:29.563Z,12.53
2019-03-27T20:57:51.584Z,9.93
2019-03-27T21:00:24.628Z,10.65
2019-03-27T21:02:57.560Z,11.53
2019-03-27T21:07:59.628Z,9.93
2019-03-27T21:13:00.343Z,11.70
2019-03-27T21:15:31.306Z,10.90
2019-03-27T21:18:02.552Z,12.15
2019-03-27T21:20:33.560Z,10.70
2019-03-27T21:23:04.561Z,13.35
2019-03-27T21:30:35.175Z,14.10
2019-03-27T21:33:07.918Z,9.93
2019-03-27T21:35:39.126Z,7.80
2019-03-27T21:38:10.450Z,7.95
2019-03-27T21:40:41.305Z,12.35
2019-03-27T21:43:12.327Z,9.98
2019-03-27T21:45:43.659Z,9.08
2019-03-27T21:48:14.558Z,9.90
2019-03-27T21:50:45.323Z,8.53
2019-03-27T21:53:15.949Z,9.20
2019-03-27T21:55:46.805Z,8.80
2019-03-27T21:58:18.511Z,11.70
2019-03-27T22:00:49.069Z,10.13
2019-03-27T22:03:20.536Z,10.80
2019-03-27T22:05:51.362Z,9.55
2019-03-27T22:08:22.810Z,11.10
2019-03-27T22:10:53.463Z,9.88
2019-03-27T22:13:24.061Z,13.58
2019-03-27T22:15:55.006Z,9.83
2019-03-27T22:18:26.010Z,11.53
2019-03-27T22:20:56.780Z,8.85
2019-03-27T22:25:57.271Z,8.80
2019-03-27T22:28:28.306Z,8.53
2019-03-27T22:30:59.005Z,10.58
2019-03-27T22:33:47.054Z,8.25
2019-03-27T22:36:18.139Z,11.28
2019-03-27T22:38:49.118Z,9.98
2019-03-27T22:41:19.812Z,13.60
2019-03-27T22:46:21.034Z,10.25
2019-03-27T22:48:53.030Z,9.83
2019-03-27T22:51:24.917Z,10.55
2019-03-27T22:53:55.750Z,12.45
2019-03-27T22:58:56.844Z,9.75
2019-03-27T23:01:46.461Z,10.00
2019-03-27T23:04:17.006Z,9.63
2019-03-27T23:06:47.670Z,11.38
2019-03-27T23:09:18.308Z,9.75
2019-03-27T23:11:49.330Z,11.18
2019-03-27T23:14:19.993Z,9.13
2019-03-27T23:16:50.737Z,13.00
2019-03-27T23:19:21.007Z,12.55
2019-03-27T23:21:52.293Z,10.40
2019-03-27T23:24:23.060Z,9.85
2019-03-27T23:26:53.841Z,11.45
2019-03-27T23:29:25.009Z,9.93
2019-03-27T23:31:55.933Z,11.73
2019-03-27T23:34:26.330Z,10.82
2019-03-27T23:36:57.428Z,11.33
2019-03-27T23:39:28.346Z,10.10
2019-03-27T23:41:58.950Z,12.23
2019-03-27T23:44:30.897Z,11.22
2019-03-27T23:47:01.375Z,10.98
2019-03-27T23:49:32.317Z,9.28
2019-03-27T23:52:02.989Z,11.30
2019-03-27T23:54:34.299Z,14.13
2019-03-27T23:57:05.019Z,19.85
2019-03-27T23:59:35.060Z,14.50
